Terminal Aerodrome Forecast
Issued by NWS

Home | Current Version | Previous Version | Text Only | Print | Product List | Glossary On
Versions: 1 2 3 4 5 6 7 8 9 10 11 12
020
FTUS43 KGRB 141720
TAFATW
TAF
KATW 141720Z 1418/1518 15010KT P6SM -SN SCT025 BKN060
     FM142100 14012G18KT 4SM -SN SCT015 OVC022
     FM150100 13009KT 2SM -SN OVC015
     FM150800 15005KT 5SM -SN BKN015 OVC025
     FM151200 18004KT P6SM -SN BKN015 OVC025
     FM151500 22005KT P6SM OVC025=

USA.gov is the U.S. government's official web portal to all federal, state and local government web resources and services.